sensor_id;sensor_type;location;lat;lon;timestamp;P1;durP1;ratioP1;P2;durP2;ratioP2
48361;SDS011;34510;51.888;5.670;2023-07-29T00:00:17;1025.63;;;932.08;;
48361;SDS011;34510;51.888;5.670;2023-07-29T00:05:21;1031.07;;;939.35;;
48361;SDS011;34510;51.888;5.670;2023-07-29T00:10:23;1021.58;;;925.72;;
48361;SDS011;34510;51.888;5.670;2023-07-29T00:15:25;1036.90;;;939.72;;
48361;SDS011;34510;51.888;5.670;2023-07-29T00:20:26;1036.68;;;940.25;;
48361;SDS011;34510;51.888;5.670;2023-07-29T00:25:28;1019.50;;;924.30;;
48361;SDS011;34510;51.888;5.670;2023-07-29T00:30:31;1027.07;;;929.45;;
48361;SDS011;34510;51.888;5.670;2023-07-29T00:35:33;1018.88;;;929.17;;
48361;SDS011;34510;51.888;5.670;2023-07-29T00:40:35;1013.90;;;921.78;;
48361;SDS011;34510;51.888;5.670;2023-07-29T00:45:37;1013.35;;;920.50;;
48361;SDS011;34510;51.888;5.670;2023-07-29T00:50:41;1015.63;;;923.70;;
48361;SDS011;34510;51.888;5.670;2023-07-29T00:55:43;1017.90;;;927.08;;
48361;SDS011;34510;51.888;5.670;2023-07-29T01:00:45;1011.78;;;919.47;;
48361;SDS011;34510;51.888;5.670;2023-07-29T01:05:54;1012.47;;;921.17;;
48361;SDS011;34510;51.888;5.670;2023-07-29T01:11:01;1026.45;;;933.97;;
48361;SDS011;34510;51.888;5.670;2023-07-29T01:16:08;1010.67;;;919.80;;
48361;SDS011;34510;51.888;5.670;2023-07-29T01:21:11;1015.13;;;926.03;;
48361;SDS011;34510;51.888;5.670;2023-07-29T01:26:14;1002.05;;;915.17;;
48361;SDS011;34510;51.888;5.670;2023-07-29T01:31:27;1013.63;;;927.10;;
48361;SDS011;34510;51.888;5.670;2023-07-29T01:36:32;1010.05;;;924.70;;
48361;SDS011;34510;51.888;5.670;2023-07-29T01:41:36;1015.13;;;930.88;;
48361;SDS011;34510;51.888;5.670;2023-07-29T01:46:38;1013.13;;;927.95;;
48361;SDS011;34510;51.888;5.670;2023-07-29T01:51:41;1010.17;;;922.35;;
48361;SDS011;34510;51.888;5.670;2023-07-29T01:56:43;1019.33;;;927.08;;
48361;SDS011;34510;51.888;5.670;2023-07-29T02:01:45;1011.35;;;919.15;;
48361;SDS011;34510;51.888;5.670;2023-07-29T02:06:48;1021.78;;;930.20;;
48361;SDS011;34510;51.888;5.670;2023-07-29T02:11:50;1002.72;;;911.28;;
48361;SDS011;34510;51.888;5.670;2023-07-29T02:16:55;1008.33;;;916.53;;
48361;SDS011;34510;51.888;5.670;2023-07-29T02:21:57;1009.10;;;917.40;;
48361;SDS011;34510;51.888;5.670;2023-07-29T02:26:59;1002.38;;;912.35;;
48361;SDS011;34510;51.888;5.670;2023-07-29T02:32:01;1016.03;;;924.22;;
48361;SDS011;34510;51.888;5.670;2023-07-29T02:37:03;1011.80;;;920.83;;
48361;SDS011;34510;51.888;5.670;2023-07-29T02:42:05;1011.30;;;919.58;;
48361;SDS011;34510;51.888;5.670;2023-07-29T02:47:07;1011.95;;;921.83;;
48361;SDS011;34510;51.888;5.670;2023-07-29T02:52:08;1012.75;;;922.65;;
48361;SDS011;34510;51.888;5.670;2023-07-29T02:57:11;997.30;;;908.20;;
48361;SDS011;34510;51.888;5.670;2023-07-29T03:02:13;995.67;;;907.33;;
48361;SDS011;34510;51.888;5.670;2023-07-29T03:07:17;1008.08;;;918.65;;
48361;SDS011;34510;51.888;5.670;2023-07-29T03:12:19;1000.00;;;907.58;;
48361;SDS011;34510;51.888;5.670;2023-07-29T03:17:23;1002.10;;;912.28;;
48361;SDS011;34510;51.888;5.670;2023-07-29T03:22:25;1010.33;;;920.25;;
48361;SDS011;34510;51.888;5.670;2023-07-29T03:27:26;1004.88;;;915.35;;
48361;SDS011;34510;51.888;5.670;2023-07-29T03:32:28;999.75;;;911.13;;
48361;SDS011;34510;51.888;5.670;2023-07-29T03:37:30;978.03;;;895.92;;
48361;SDS011;34510;51.888;5.670;2023-07-29T03:42:32;996.80;;;910.63;;
48361;SDS011;34510;51.888;5.670;2023-07-29T03:47:34;975.90;;;892.80;;
48361;SDS011;34510;51.888;5.670;2023-07-29T03:52:36;984.00;;;901.92;;
48361;SDS011;34510;51.888;5.670;2023-07-29T03:57:38;968.67;;;887.80;;
48361;SDS011;34510;51.888;5.670;2023-07-29T04:02:41;965.65;;;883.42;;
48361;SDS011;34510;51.888;5.670;2023-07-29T04:07:44;966.15;;;884.55;;
48361;SDS011;34510;51.888;5.670;2023-07-29T04:12:46;967.63;;;883.03;;
48361;SDS011;34510;51.888;5.670;2023-07-29T04:17:48;976.47;;;891.40;;
48361;SDS011;34510;51.888;5.670;2023-07-29T04:22:50;960.47;;;877.67;;
48361;SDS011;34510;51.888;5.670;2023-07-29T04:27:52;956.75;;;873.83;;
48361;SDS011;34510;51.888;5.670;2023-07-29T04:32:54;975.47;;;888.15;;
48361;SDS011;34510;51.888;5.670;2023-07-29T04:37:56;957.03;;;872.75;;
48361;SDS011;34510;51.888;5.670;2023-07-29T04:42:59;963.15;;;877.22;;
48361;SDS011;34510;51.888;5.670;2023-07-29T04:48:01;964.70;;;876.65;;
48361;SDS011;34510;51.888;5.670;2023-07-29T04:53:03;976.92;;;895.65;;
48361;SDS011;34510;51.888;5.670;2023-07-29T04:58:05;964.45;;;885.67;;
48361;SDS011;34510;51.888;5.670;2023-07-29T05:03:07;958.17;;;878.67;;
48361;SDS011;34510;51.888;5.670;2023-07-29T05:08:09;964.58;;;883.50;;
48361;SDS011;34510;51.888;5.670;2023-07-29T05:13:11;949.40;;;869.60;;
48361;SDS011;34510;51.888;5.670;2023-07-29T05:18:13;940.45;;;863.50;;
48361;SDS011;34510;51.888;5.670;2023-07-29T05:23:14;954.90;;;875.03;;
48361;SDS011;34510;51.888;5.670;2023-07-29T05:28:16;949.75;;;870.50;;
48361;SDS011;34510;51.888;5.670;2023-07-29T05:33:18;961.78;;;881.17;;
48361;SDS011;34510;51.888;5.670;2023-07-29T05:38:20;955.83;;;876.20;;
48361;SDS011;34510;51.888;5.670;2023-07-29T05:43:24;971.35;;;890.15;;
48361;SDS011;34510;51.888;5.670;2023-07-29T05:48:25;955.97;;;879.13;;
48361;SDS011;34510;51.888;5.670;2023-07-29T05:53:27;971.05;;;887.92;;
48361;SDS011;34510;51.888;5.670;2023-07-29T05:58:29;990.15;;;905.35;;
48361;SDS011;34510;51.888;5.670;2023-07-29T06:03:33;992.60;;;902.97;;
48361;SDS011;34510;51.888;5.670;2023-07-29T06:08:35;998.50;;;907.25;;
48361;SDS011;34510;51.888;5.670;2023-07-29T06:13:37;990.88;;;901.70;;
48361;SDS011;34510;51.888;5.670;2023-07-29T06:18:39;1023.13;;;931.95;;
48361;SDS011;34510;51.888;5.670;2023-07-29T06:23:40;1029.75;;;936.92;;
48361;SDS011;34510;51.888;5.670;2023-07-29T06:28:42;1029.25;;;937.30;;
48361;SDS011;34510;51.888;5.670;2023-07-29T06:33:44;1026.65;;;935.03;;
48361;SDS011;34510;51.888;5.670;2023-07-29T06:38:46;1027.70;;;934.72;;
48361;SDS011;34510;51.888;5.670;2023-07-29T06:43:48;1026.07;;;932.05;;
48361;SDS011;34510;51.888;5.670;2023-07-29T06:48:50;1033.63;;;940.70;;
48361;SDS011;34510;51.888;5.670;2023-07-29T06:53:52;1033.15;;;943.22;;
48361;SDS011;34510;51.888;5.670;2023-07-29T06:58:54;1044.47;;;952.75;;
48361;SDS011;34510;51.888;5.670;2023-07-29T07:03:55;1049.18;;;958.22;;
48361;SDS011;34510;51.888;5.670;2023-07-29T07:09:00;1045.43;;;953.78;;
48361;SDS011;34510;51.888;5.670;2023-07-29T07:14:02;1044.30;;;950.28;;
48361;SDS011;34510;51.888;5.670;2023-07-29T07:19:04;1069.07;;;974.40;;
48361;SDS011;34510;51.888;5.670;2023-07-29T07:24:06;1075.90;;;977.65;;
48361;SDS011;34510;51.888;5.670;2023-07-29T07:29:08;1081.07;;;982.50;;
48361;SDS011;34510;51.888;5.670;2023-07-29T07:34:09;1083.43;;;989.15;;
48361;SDS011;34510;51.888;5.670;2023-07-29T07:39:11;1085.30;;;992.33;;
48361;SDS011;34510;51.888;5.670;2023-07-29T07:44:13;1096.15;;;998.72;;
48361;SDS011;34510;51.888;5.670;2023-07-29T07:49:17;1083.57;;;991.47;;
48361;SDS011;34510;51.888;5.670;2023-07-29T07:54:18;1082.90;;;991.38;;
48361;SDS011;34510;51.888;5.670;2023-07-29T07:59:20;1066.00;;;977.67;;
48361;SDS011;34510;51.888;5.670;2023-07-29T08:04:22;1084.75;;;994.42;;
48361;SDS011;34510;51.888;5.670;2023-07-29T08:09:24;1083.72;;;992.95;;
48361;SDS011;34510;51.888;5.670;2023-07-29T08:14:29;1110.05;;;999.90;;
48361;SDS011;34510;51.888;5.670;2023-07-29T08:19:31;1095.45;;;998.25;;
48361;SDS011;34510;51.888;5.670;2023-07-29T08:24:33;1099.57;;;998.58;;
48361;SDS011;34510;51.888;5.670;2023-07-29T08:29:35;1099.57;;;997.05;;
48361;SDS011;34510;51.888;5.670;2023-07-29T08:34:37;1105.10;;;998.92;;
48361;SDS011;34510;51.888;5.670;2023-07-29T08:39:39;1112.25;;;999.60;;
48361;SDS011;34510;51.888;5.670;2023-07-29T08:44:42;1131.88;;;999.90;;
48361;SDS011;34510;51.888;5.670;2023-07-29T08:49:44;1138.82;;;999.90;;
48361;SDS011;34510;51.888;5.670;2023-07-29T08:54:47;1118.25;;;999.90;;
48361;SDS011;34510;51.888;5.670;2023-07-29T08:59:49;1127.10;;;999.90;;
48361;SDS011;34510;51.888;5.670;2023-07-29T09:04:51;1130.70;;;999.90;;
48361;SDS011;34510;51.888;5.670;2023-07-29T09:09:52;1137.90;;;999.90;;
48361;SDS011;34510;51.888;5.670;2023-07-29T09:14:54;1134.50;;;999.90;;
48361;SDS011;34510;51.888;5.670;2023-07-29T09:19:56;1148.32;;;999.90;;
48361;SDS011;34510;51.888;5.670;2023-07-29T09:24:58;1138.15;;;999.90;;
48361;SDS011;34510;51.888;5.670;2023-07-29T09:30:00;1136.63;;;999.90;;
48361;SDS011;34510;51.888;5.670;2023-07-29T09:35:02;1138.70;;;999.90;;
48361;SDS011;34510;51.888;5.670;2023-07-29T09:40:05;1142.22;;;999.90;;
48361;SDS011;34510;51.888;5.670;2023-07-29T09:45:07;1171.53;;;999.90;;
48361;SDS011;34510;51.888;5.670;2023-07-29T09:50:09;1162.20;;;999.90;;
48361;SDS011;34510;51.888;5.670;2023-07-29T09:55:17;1167.25;;;999.90;;
48361;SDS011;34510;51.888;5.670;2023-07-29T10:00:19;1160.57;;;999.90;;
48361;SDS011;34510;51.888;5.670;2023-07-29T10:05:21;1158.43;;;999.90;;
48361;SDS011;34510;51.888;5.670;2023-07-29T10:10:24;1162.93;;;999.90;;
48361;SDS011;34510;51.888;5.670;2023-07-29T10:15:26;1158.43;;;999.90;;
48361;SDS011;34510;51.888;5.670;2023-07-29T10:20:28;1160.13;;;999.90;;
48361;SDS011;34510;51.888;5.670;2023-07-29T10:25:38;1162.93;;;999.90;;
48361;SDS011;34510;51.888;5.670;2023-07-29T10:30:43;1166.43;;;999.90;;
48361;SDS011;34510;51.888;5.670;2023-07-29T10:35:45;1163.22;;;999.90;;
48361;SDS011;34510;51.888;5.670;2023-07-29T10:40:49;1170.57;;;999.90;;
48361;SDS011;34510;51.888;5.670;2023-07-29T10:45:52;1162.03;;;999.90;;
48361;SDS011;34510;51.888;5.670;2023-07-29T10:56:31;1171.55;;;999.90;;
48361;SDS011;34510;51.888;5.670;2023-07-29T11:01:33;1180.50;;;999.90;;
48361;SDS011;34510;51.888;5.670;2023-07-29T11:07:01;1183.78;;;999.90;;
48361;SDS011;34510;51.888;5.670;2023-07-29T11:11:57;1173.95;;;999.90;;
48361;SDS011;34510;51.888;5.670;2023-07-29T11:16:59;1176.47;;;999.90;;
48361;SDS011;34510;51.888;5.670;2023-07-29T11:22:01;1158.35;;;999.90;;
48361;SDS011;34510;51.888;5.670;2023-07-29T11:27:04;1162.28;;;999.90;;
48361;SDS011;34510;51.888;5.670;2023-07-29T11:32:06;1155.90;;;999.90;;
48361;SDS011;34510;51.888;5.670;2023-07-29T11:37:09;1154.82;;;999.90;;
48361;SDS011;34510;51.888;5.670;2023-07-29T11:42:11;1132.90;;;999.90;;
48361;SDS011;34510;51.888;5.670;2023-07-29T11:47:13;1122.93;;;999.90;;
48361;SDS011;34510;51.888;5.670;2023-07-29T11:52:14;1107.22;;;999.90;;
48361;SDS011;34510;51.888;5.670;2023-07-29T11:57:20;1086.95;;;993.60;;
48361;SDS011;34510;51.888;5.670;2023-07-29T12:02:23;1094.40;;;998.90;;
48361;SDS011;34510;51.888;5.670;2023-07-29T12:07:25;1083.45;;;990.38;;
48361;SDS011;34510;51.888;5.670;2023-07-29T12:12:27;1070.57;;;978.15;;
48361;SDS011;34510;51.888;5.670;2023-07-29T12:17:29;1088.32;;;995.53;;
48361;SDS011;34510;51.888;5.670;2023-07-29T12:22:31;1086.03;;;993.40;;
48361;SDS011;34510;51.888;5.670;2023-07-29T12:27:33;1096.05;;;999.00;;
48361;SDS011;34510;51.888;5.670;2023-07-29T12:32:42;1085.32;;;992.63;;
48361;SDS011;34510;51.888;5.670;2023-07-29T12:37:44;1102.13;;;999.90;;
48361;SDS011;34510;51.888;5.670;2023-07-29T12:42:46;1118.05;;;999.90;;
48361;SDS011;34510;51.888;5.670;2023-07-29T12:47:48;1120.50;;;999.90;;
48361;SDS011;34510;51.888;5.670;2023-07-29T12:52:50;1121.45;;;999.90;;
48361;SDS011;34510;51.888;5.670;2023-07-29T12:57:52;1122.00;;;999.90;;
48361;SDS011;34510;51.888;5.670;2023-07-29T13:02:54;1124.13;;;999.90;;
48361;SDS011;34510;51.888;5.670;2023-07-29T13:07:56;1152.72;;;999.90;;
48361;SDS011;34510;51.888;5.670;2023-07-29T13:12:58;1121.40;;;999.90;;
48361;SDS011;34510;51.888;5.670;2023-07-29T13:18:01;1139.70;;;999.90;;
48361;SDS011;34510;51.888;5.670;2023-07-29T13:23:03;1153.88;;;999.90;;
48361;SDS011;34510;51.888;5.670;2023-07-29T13:28:04;1168.28;;;999.90;;
48361;SDS011;34510;51.888;5.670;2023-07-29T13:33:07;1165.20;;;999.90;;
48361;SDS011;34510;51.888;5.670;2023-07-29T13:38:09;1158.13;;;999.90;;
48361;SDS011;34510;51.888;5.670;2023-07-29T13:43:11;1158.38;;;999.90;;
48361;SDS011;34510;51.888;5.670;2023-07-29T13:48:13;1176.00;;;999.90;;
48361;SDS011;34510;51.888;5.670;2023-07-29T13:53:15;1164.13;;;999.90;;
48361;SDS011;34510;51.888;5.670;2023-07-29T13:58:17;1165.40;;;999.90;;
48361;SDS011;34510;51.888;5.670;2023-07-29T14:03:18;1159.80;;;999.90;;
48361;SDS011;34510;51.888;5.670;2023-07-29T14:08:20;1167.32;;;999.90;;
48361;SDS011;34510;51.888;5.670;2023-07-29T14:13:24;1151.57;;;999.90;;
48361;SDS011;34510;51.888;5.670;2023-07-29T14:18:26;1175.53;;;999.90;;
48361;SDS011;34510;51.888;5.670;2023-07-29T14:23:28;1158.20;;;999.90;;
48361;SDS011;34510;51.888;5.670;2023-07-29T14:28:30;1162.95;;;999.90;;
48361;SDS011;34510;51.888;5.670;2023-07-29T14:33:32;1153.13;;;999.90;;
48361;SDS011;34510;51.888;5.670;2023-07-29T14:38:34;1162.88;;;999.90;;
48361;SDS011;34510;51.888;5.670;2023-07-29T14:43:36;1142.90;;;999.90;;
48361;SDS011;34510;51.888;5.670;2023-07-29T14:48:38;1152.45;;;999.90;;
48361;SDS011;34510;51.888;5.670;2023-07-29T14:53:40;1156.00;;;999.90;;
48361;SDS011;34510;51.888;5.670;2023-07-29T14:58:42;1158.97;;;999.90;;
48361;SDS011;34510;51.888;5.670;2023-07-29T15:03:44;1161.38;;;999.90;;
48361;SDS011;34510;51.888;5.670;2023-07-29T15:08:47;1130.00;;;999.90;;
48361;SDS011;34510;51.888;5.670;2023-07-29T15:13:49;1145.35;;;999.90;;
48361;SDS011;34510;51.888;5.670;2023-07-29T15:18:51;1146.88;;;999.90;;
48361;SDS011;34510;51.888;5.670;2023-07-29T15:23:53;1139.82;;;999.90;;
48361;SDS011;34510;51.888;5.670;2023-07-29T15:28:55;1134.35;;;999.90;;
48361;SDS011;34510;51.888;5.670;2023-07-29T15:33:57;1134.20;;;999.90;;
48361;SDS011;34510;51.888;5.670;2023-07-29T15:38:59;1141.15;;;999.90;;
48361;SDS011;34510;51.888;5.670;2023-07-29T15:44:01;1145.07;;;999.90;;
48361;SDS011;34510;51.888;5.670;2023-07-29T15:49:03;1136.70;;;999.90;;
48361;SDS011;34510;51.888;5.670;2023-07-29T15:54:04;1135.88;;;999.90;;
48361;SDS011;34510;51.888;5.670;2023-07-29T15:59:07;1144.82;;;999.90;;
48361;SDS011;34510;51.888;5.670;2023-07-29T16:04:09;1146.50;;;999.90;;
48361;SDS011;34510;51.888;5.670;2023-07-29T16:09:11;1139.88;;;999.90;;
48361;SDS011;34510;51.888;5.670;2023-07-29T16:14:12;1142.63;;;999.90;;
48361;SDS011;34510;51.888;5.670;2023-07-29T16:19:21;1116.15;;;999.90;;
48361;SDS011;34510;51.888;5.670;2023-07-29T16:24:23;1129.95;;;999.90;;
48361;SDS011;34510;51.888;5.670;2023-07-29T16:29:25;1136.95;;;999.90;;
48361;SDS011;34510;51.888;5.670;2023-07-29T16:34:27;1133.30;;;999.90;;
48361;SDS011;34510;51.888;5.670;2023-07-29T16:39:29;1127.13;;;999.90;;
48361;SDS011;34510;51.888;5.670;2023-07-29T16:44:31;1137.90;;;999.90;;
48361;SDS011;34510;51.888;5.670;2023-07-29T16:49:34;1127.65;;;999.90;;
48361;SDS011;34510;51.888;5.670;2023-07-29T16:54:35;1111.88;;;999.90;;
48361;SDS011;34510;51.888;5.670;2023-07-29T16:59:37;1112.47;;;999.90;;
48361;SDS011;34510;51.888;5.670;2023-07-29T17:04:39;1123.75;;;999.90;;
48361;SDS011;34510;51.888;5.670;2023-07-29T17:09:41;1112.28;;;999.90;;
48361;SDS011;34510;51.888;5.670;2023-07-29T17:14:43;1106.35;;;999.90;;
48361;SDS011;34510;51.888;5.670;2023-07-29T17:19:45;1106.70;;;999.90;;
48361;SDS011;34510;51.888;5.670;2023-07-29T17:24:47;1115.82;;;999.90;;
48361;SDS011;34510;51.888;5.670;2023-07-29T17:29:49;1108.68;;;999.90;;
48361;SDS011;34510;51.888;5.670;2023-07-29T17:34:51;1088.28;;;994.88;;
48361;SDS011;34510;51.888;5.670;2023-07-29T17:39:53;1114.47;;;999.90;;
48361;SDS011;34510;51.888;5.670;2023-07-29T17:44:55;1092.93;;;997.28;;
48361;SDS011;34510;51.888;5.670;2023-07-29T17:49:57;1101.53;;;999.90;;
48361;SDS011;34510;51.888;5.670;2023-07-29T17:54:59;1096.38;;;998.97;;
48361;SDS011;34510;51.888;5.670;2023-07-29T18:00:00;1108.75;;;999.90;;
48361;SDS011;34510;51.888;5.670;2023-07-29T18:05:05;1097.57;;;998.60;;
48361;SDS011;34510;51.888;5.670;2023-07-29T18:10:08;1117.88;;;999.90;;
48361;SDS011;34510;51.888;5.670;2023-07-29T18:15:11;1108.07;;;999.90;;
48361;SDS011;34510;51.888;5.670;2023-07-29T18:20:13;1113.00;;;999.90;;
48361;SDS011;34510;51.888;5.670;2023-07-29T18:25:15;1107.93;;;999.90;;
48361;SDS011;34510;51.888;5.670;2023-07-29T18:30:17;1104.50;;;999.90;;
48361;SDS011;34510;51.888;5.670;2023-07-29T18:35:19;1113.07;;;999.90;;
48361;SDS011;34510;51.888;5.670;2023-07-29T18:40:20;1101.72;;;999.90;;
48361;SDS011;34510;51.888;5.670;2023-07-29T18:45:22;1096.35;;;997.95;;
48361;SDS011;34510;51.888;5.670;2023-07-29T18:50:24;1099.28;;;999.60;;
48361;SDS011;34510;51.888;5.670;2023-07-29T18:55:26;1100.82;;;999.90;;
48361;SDS011;34510;51.888;5.670;2023-07-29T19:00:30;1110.80;;;999.90;;
48361;SDS011;34510;51.888;5.670;2023-07-29T19:05:34;1098.68;;;999.80;;
48361;SDS011;34510;51.888;5.670;2023-07-29T19:10:36;1086.07;;;994.05;;
48361;SDS011;34510;51.888;5.670;2023-07-29T19:15:40;1079.70;;;991.10;;
48361;SDS011;34510;51.888;5.670;2023-07-29T19:20:42;1065.13;;;977.80;;
48361;SDS011;34510;51.888;5.670;2023-07-29T19:25:49;1061.40;;;973.97;;
48361;SDS011;34510;51.888;5.670;2023-07-29T19:30:52;1063.32;;;974.17;;
48361;SDS011;34510;51.888;5.670;2023-07-29T19:35:54;1054.30;;;965.80;;
48361;SDS011;34510;51.888;5.670;2023-07-29T19:41:00;1036.65;;;950.05;;
48361;SDS011;34510;51.888;5.670;2023-07-29T19:46:02;1041.38;;;954.15;;
48361;SDS011;34510;51.888;5.670;2023-07-29T19:51:08;1034.13;;;946.63;;
48361;SDS011;34510;51.888;5.670;2023-07-29T19:56:10;1039.00;;;953.47;;
48361;SDS011;34510;51.888;5.670;2023-07-29T20:01:12;1023.13;;;938.65;;
48361;SDS011;34510;51.888;5.670;2023-07-29T20:06:16;1020.28;;;934.08;;
48361;SDS011;34510;51.888;5.670;2023-07-29T20:11:18;1022.90;;;936.50;;
48361;SDS011;34510;51.888;5.670;2023-07-29T20:16:20;1020.58;;;935.88;;
48361;SDS011;34510;51.888;5.670;2023-07-29T20:21:23;1018.15;;;934.28;;
48361;SDS011;34510;51.888;5.670;2023-07-29T20:26:25;1005.33;;;920.80;;
48361;SDS011;34510;51.888;5.670;2023-07-29T20:31:32;1014.65;;;930.50;;
48361;SDS011;34510;51.888;5.670;2023-07-29T20:36:34;1011.65;;;927.70;;
48361;SDS011;34510;51.888;5.670;2023-07-29T20:41:36;1024.70;;;938.67;;
48361;SDS011;34510;51.888;5.670;2023-07-29T20:46:38;1022.05;;;935.13;;
48361;SDS011;34510;51.888;5.670;2023-07-29T20:51:41;1011.90;;;928.15;;
48361;SDS011;34510;51.888;5.670;2023-07-29T20:56:43;994.75;;;909.67;;
48361;SDS011;34510;51.888;5.670;2023-07-29T21:01:57;988.20;;;907.92;;
48361;SDS011;34510;51.888;5.670;2023-07-29T21:06:59;987.72;;;908.00;;
48361;SDS011;34510;51.888;5.670;2023-07-29T21:12:02;983.10;;;904.53;;
48361;SDS011;34510;51.888;5.670;2023-07-29T21:17:04;967.80;;;891.28;;
48361;SDS011;34510;51.888;5.670;2023-07-29T21:22:06;966.85;;;888.60;;
48361;SDS011;34510;51.888;5.670;2023-07-29T21:27:08;976.83;;;897.05;;
48361;SDS011;34510;51.888;5.670;2023-07-29T21:32:10;991.78;;;908.55;;
48361;SDS011;34510;51.888;5.670;2023-07-29T21:37:12;967.70;;;886.50;;
48361;SDS011;34510;51.888;5.670;2023-07-29T21:42:26;971.63;;;888.58;;
48361;SDS011;34510;51.888;5.670;2023-07-29T21:47:28;969.60;;;887.53;;
48361;SDS011;34510;51.888;5.670;2023-07-29T21:52:30;962.05;;;879.42;;
48361;SDS011;34510;51.888;5.670;2023-07-29T21:57:32;966.15;;;880.20;;
48361;SDS011;34510;51.888;5.670;2023-07-29T22:02:35;944.08;;;863.42;;
48361;SDS011;34510;51.888;5.670;2023-07-29T22:07:37;940.45;;;856.78;;
48361;SDS011;34510;51.888;5.670;2023-07-29T22:12:39;938.70;;;856.58;;
48361;SDS011;34510;51.888;5.670;2023-07-29T22:17:43;936.20;;;852.65;;
48361;SDS011;34510;51.888;5.670;2023-07-29T22:22:44;939.20;;;852.42;;
48361;SDS011;34510;51.888;5.670;2023-07-29T22:27:46;943.63;;;857.20;;
48361;SDS011;34510;51.888;5.670;2023-07-29T22:32:48;939.53;;;853.13;;
48361;SDS011;34510;51.888;5.670;2023-07-29T22:37:50;942.95;;;857.35;;
48361;SDS011;34510;51.888;5.670;2023-07-29T22:42:52;937.78;;;851.20;;
48361;SDS011;34510;51.888;5.670;2023-07-29T22:47:54;947.30;;;860.05;;
48361;SDS011;34510;51.888;5.670;2023-07-29T22:52:56;945.05;;;857.47;;
48361;SDS011;34510;51.888;5.670;2023-07-29T22:57:58;933.17;;;846.53;;
48361;SDS011;34510;51.888;5.670;2023-07-29T23:03:01;944.15;;;854.35;;
48361;SDS011;34510;51.888;5.670;2023-07-29T23:08:03;945.03;;;854.65;;
48361;SDS011;34510;51.888;5.670;2023-07-29T23:13:05;943.60;;;853.80;;
48361;SDS011;34510;51.888;5.670;2023-07-29T23:18:07;936.20;;;846.05;;
48361;SDS011;34510;51.888;5.670;2023-07-29T23:23:09;915.60;;;825.85;;
48361;SDS011;34510;51.888;5.670;2023-07-29T23:28:11;931.85;;;839.60;;
48361;SDS011;34510;51.888;5.670;2023-07-29T23:33:13;924.70;;;833.10;;
48361;SDS011;34510;51.888;5.670;2023-07-29T23:38:15;920.25;;;828.97;;
48361;SDS011;34510;51.888;5.670;2023-07-29T23:43:23;900.15;;;809.25;;
48361;SDS011;34510;51.888;5.670;2023-07-29T23:48:25;913.72;;;820.85;;
48361;SDS011;34510;51.888;5.670;2023-07-29T23:53:26;914.50;;;820.67;;
48361;SDS011;34510;51.888;5.670;2023-07-29T23:58:28;899.58;;;806.83;;
